Time;durP1;ratioP1;P1;durP2;ratioP2;P2;SDS_P1;SDS_P2;PMS_P1;PMS_P2;Temp;Humidity;BMP_temperature;BMP_pressure;BME280_temperature;BME280_humidity;BME280_pressure;Samples;Min_cycle;Max_cycle;Signal;HPM_P1;HPM_P2
2021/06/07 00:01:27;;;;;;;10.27;6.53;;;16.00;99.90;;;;;;5067850;28;20193;-80
2021/06/07 00:03:53;;;;;;;11.30;6.57;;;15.90;99.90;;;;;;5067490;28;20180;-80
2021/06/07 00:06:19;;;;;;;11.30;6.10;;;15.90;99.90;;;;;;5085019;28;20184;-80
2021/06/07 00:08:44;;;;;;;12.33;7.50;;;15.90;99.90;;;;;;5101958;28;20560;-80
2021/06/07 00:11:11;;;;;;;12.63;6.30;;;15.90;99.90;;;;;;5067216;28;20196;-80
2021/06/07 00:13:37;;;;;;;10.63;6.17;;;15.90;99.90;;;;;;5067802;28;20193;-80
2021/06/07 00:16:03;;;;;;;9.47;5.97;;;15.90;99.90;;;;;;5100149;28;20274;-80
2021/06/07 00:18:28;;;;;;;10.20;6.53;;;15.90;99.90;;;;;;5083498;28;20189;-80
2021/06/07 00:21:12;;;;;;;10.10;5.57;;;15.90;99.90;;;;;;5083297;28;20196;-80
2021/06/07 00:23:39;;;;;;;10.67;6.77;;;15.90;99.90;;;;;;5085623;28;20249;-80
2021/06/07 00:26:05;;;;;;;11.40;6.43;;;15.90;99.90;;;;;;5084288;28;20184;-80
2021/06/07 00:28:31;;;;;;;13.70;6.93;;;15.90;99.90;;;;;;5066103;28;20615;-80
2021/06/07 00:30:57;;;;;;;11.17;6.43;;;15.90;99.90;;;;;;5049033;28;20239;-80
2021/06/07 00:33:22;;;;;;;13.57;7.20;;;15.80;99.90;;;;;;5066654;28;20248;-80
2021/06/07 00:35:48;;;;;;;13.07;6.63;;;15.80;99.90;;;;;;5100002;28;20282;-80
2021/06/07 00:38:13;;;;;;;12.90;7.40;;;15.80;99.90;;;;;;5065971;28;20184;-79
2021/06/07 00:40:39;;;;;;;12.50;7.00;;;15.80;99.90;;;;;;5081551;28;20679;-80
2021/06/07 00:43:05;;;;;;;14.33;7.20;;;15.70;99.90;;;;;;5066207;28;20778;-80
2021/06/07 00:45:31;;;;;;;13.87;7.13;;;15.80;99.90;;;;;;5066697;28;20185;-80
2021/06/07 00:47:58;;;;;;;12.53;7.53;;;15.80;99.90;;;;;;5066693;28;20209;-80
2021/06/07 00:50:48;;;;;;;15.07;8.10;;;15.70;99.90;;;;;;5067782;28;20546;-80
2021/06/07 00:53:17;;;;;;;14.43;8.40;;;15.80;99.90;;;;;;5100824;28;20592;-80
2021/06/07 00:55:57;;;;;;;14.40;7.93;;;15.80;99.90;;;;;;5067822;28;20223;-80
2021/06/07 00:58:27;;;;;;;17.40;8.63;;;15.70;99.90;;;;;;5067293;28;20558;-79
2021/06/07 01:00:52;;;;;;;14.23;7.70;;;15.70;99.90;;;;;;5067750;28;20215;-79
2021/06/07 01:03:18;;;;;;;19.03;8.90;;;15.80;99.90;;;;;;5083039;28;20749;-80
2021/06/07 01:05:45;;;;;;;14.77;8.30;;;15.70;99.90;;;;;;5100418;28;20236;-80
2021/06/07 01:08:10;;;;;;;19.70;8.30;;;15.70;99.90;;;;;;5066899;28;20208;-79
2021/06/07 01:10:36;;;;;;;16.50;8.30;;;15.70;99.90;;;;;;5100162;28;20206;-81
2021/06/07 01:13:02;;;;;;;15.70;8.93;;;15.70;99.90;;;;;;5066026;28;20221;-79
2021/06/07 01:15:27;;;;;;;20.23;9.40;;;15.70;99.90;;;;;;5067071;28;20177;-80
2021/06/07 01:17:53;;;;;;;17.90;9.60;;;15.70;99.90;;;;;;5083007;28;20177;-79
2021/06/07 01:20:19;;;;;;;18.93;10.17;;;15.70;99.90;;;;;;5066619;28;20177;-80
2021/06/07 01:22:45;;;;;;;19.63;10.00;;;15.60;99.90;;;;;;5083224;28;20200;-79
2021/06/07 01:25:14;;;;;;;19.33;9.87;;;15.60;99.90;;;;;;5067133;28;20192;-80
2021/06/07 01:27:39;;;;;;;18.17;9.63;;;15.60;99.90;;;;;;5083407;28;20204;-79
2021/06/07 01:30:16;;;;;;;21.00;9.87;;;15.60;99.90;;;;;;5065317;28;20536;-79
2021/06/07 01:32:42;;;;;;;21.97;10.27;;;15.60;99.90;;;;;;5065880;28;20230;-80
2021/06/07 01:35:09;;;;;;;17.57;9.57;;;15.50;99.90;;;;;;5082576;28;20226;-79
2021/06/07 01:37:35;;;;;;;18.60;9.57;;;15.50;99.90;;;;;;5083099;28;20675;-80
2021/06/07 01:40:00;;;;;;;20.10;9.43;;;15.50;99.90;;;;;;5088608;28;20188;-80
2021/06/07 01:42:26;;;;;;;20.13;9.47;;;15.50;99.90;;;;;;5086370;28;20285;-80
2021/06/07 01:44:52;;;;;;;22.03;9.77;;;15.50;99.90;;;;;;5069622;28;20188;-80
2021/06/07 01:47:17;;;;;;;17.50;9.17;;;15.50;99.90;;;;;;5085803;28;20544;-80
2021/06/07 01:49:43;;;;;;;14.87;8.70;;;15.50;99.90;;;;;;5085594;28;20183;-80
2021/06/07 01:52:09;;;;;;;16.60;8.80;;;15.50;99.90;;;;;;5085211;28;20751;-80
2021/06/07 01:54:35;;;;;;;16.63;9.00;;;15.50;99.90;;;;;;5084810;28;20180;-80
2021/06/07 01:57:00;;;;;;;13.50;7.40;;;15.50;99.90;;;;;;5085122;28;20185;-80
2021/06/07 01:59:26;;;;;;;16.87;8.53;;;15.50;99.90;;;;;;5067102;28;20184;-80
2021/06/07 02:01:54;;;;;;;15.40;7.83;;;15.50;99.90;;;;;;5102042;28;20197;-80
2021/06/07 02:04:20;;;;;;;12.87;7.83;;;15.50;99.90;;;;;;5068543;28;20189;-79
2021/06/07 02:06:45;;;;;;;15.07;8.00;;;15.50;99.90;;;;;;5100729;28;20181;-80
2021/06/07 02:09:11;;;;;;;13.57;7.97;;;15.50;99.90;;;;;;5082681;28;20238;-79
2021/06/07 02:11:36;;;;;;;14.77;8.00;;;15.50;99.90;;;;;;5083841;28;20193;-80
2021/06/07 02:14:03;;;;;;;15.00;7.57;;;15.40;99.90;;;;;;5116827;28;20188;-80
2021/06/07 02:16:34;;;;;;;13.10;8.07;;;15.40;99.90;;;;;;5070650;28;20177;-80
2021/06/07 02:19:01;;;;;;;15.40;8.13;;;15.40;99.90;;;;;;5071038;28;20238;-80
2021/06/07 02:21:26;;;;;;;11.90;7.80;;;15.40;99.90;;;;;;5070422;28;20246;-79
2021/06/07 02:23:52;;;;;;;12.50;7.33;;;15.40;99.90;;;;;;5070043;28;20193;-79
2021/06/07 02:26:18;;;;;;;10.73;7.47;;;15.40;99.90;;;;;;5069450;28;20197;-79
2021/06/07 02:28:59;;;;;;;13.90;7.10;;;15.40;99.90;;;;;;5084501;28;20207;-80
2021/06/07 02:31:25;;;;;;;10.53;7.07;;;15.40;99.90;;;;;;5085127;28;20235;-80
2021/06/07 02:33:51;;;;;;;12.80;6.97;;;15.40;99.90;;;;;;5069193;28;20175;-80
2021/06/07 02:36:18;;;;;;;13.20;7.10;;;15.40;99.90;;;;;;5085714;28;20183;-79
2021/06/07 02:38:44;;;;;;;12.60;7.40;;;15.40;99.90;;;;;;5069552;28;20548;-79
2021/06/07 02:41:09;;;;;;;11.83;6.73;;;15.40;99.90;;;;;;5069792;28;20201;-79
2021/06/07 02:43:35;;;;;;;12.67;7.20;;;15.30;99.90;;;;;;5103456;28;20210;-79
2021/06/07 02:46:00;;;;;;;13.43;7.63;;;15.30;99.90;;;;;;5086234;28;20215;-80
2021/06/07 02:48:26;;;;;;;11.80;7.03;;;15.40;99.90;;;;;;5069394;28;20209;-80
2021/06/07 02:50:52;;;;;;;15.03;7.83;;;15.30;99.90;;;;;;5103898;28;20212;-79
2021/06/07 02:53:17;;;;;;;15.63;8.00;;;15.30;99.90;;;;;;5069373;28;20207;-80
2021/06/07 02:55:45;;;;;;;13.63;7.93;;;15.30;99.90;;;;;;5086429;28;20225;-80
2021/06/07 02:58:11;;;;;;;17.30;8.60;;;15.30;99.90;;;;;;5086252;28;20176;-80
2021/06/07 03:00:44;;;;;;;16.00;8.73;;;15.30;99.90;;;;;;5069124;28;20280;-80
2021/06/07 03:03:09;;;;;;;15.97;8.57;;;15.30;99.90;;;;;;5102928;28;20184;-79
2021/06/07 03:05:35;;;;;;;15.47;8.60;;;15.30;99.90;;;;;;5068996;28;20181;-80
2021/06/07 03:08:01;;;;;;;16.47;8.90;;;15.20;99.90;;;;;;5069678;28;20206;-80
2021/06/07 03:10:26;;;;;;;14.83;8.70;;;15.20;99.90;;;;;;5068788;28;20678;-80
2021/06/07 03:12:52;;;;;;;16.87;9.10;;;15.20;99.90;;;;;;5068515;28;20180;-80
2021/06/07 03:15:18;;;;;;;17.03;9.40;;;15.20;99.90;;;;;;5068921;28;20175;-80
2021/06/07 03:17:44;;;;;;;15.87;8.97;;;15.20;99.90;;;;;;5085260;28;20207;-80
2021/06/07 03:20:11;;;;;;;16.00;9.87;;;15.20;99.90;;;;;;5068264;28;20244;-80
2021/06/07 03:22:36;;;;;;;14.80;8.83;;;15.20;99.90;;;;;;5085315;28;20200;-80
2021/06/07 03:25:03;;;;;;;18.27;9.27;;;15.20;99.90;;;;;;5068487;28;20679;-80
2021/06/07 03:27:29;;;;;;;16.77;9.50;;;15.20;99.90;;;;;;5101726;28;20260;-79
2021/06/07 03:29:54;;;;;;;13.27;8.70;;;15.20;99.90;;;;;;5096655;28;20211;-80
2021/06/07 03:32:20;;;;;;;15.87;9.63;;;15.20;99.90;;;;;;5118359;28;20192;-80
2021/06/07 03:34:45;;;;;;;13.40;8.90;;;15.20;99.90;;;;;;5093764;28;20623;-79
2021/06/07 03:37:11;;;;;;;15.50;8.93;;;15.20;99.90;;;;;;5089499;28;20571;-80
2021/06/07 03:39:37;;;;;;;16.60;9.33;;;15.20;99.90;;;;;;5088401;28;20180;-79
2021/06/07 03:42:03;;;;;;;15.70;8.43;;;15.10;99.90;;;;;;5104974;28;20196;-79
2021/06/07 03:44:28;;;;;;;16.97;8.57;;;15.10;99.90;;;;;;5089818;28;20202;-80
2021/06/07 03:46:54;;;;;;;16.60;8.63;;;15.20;99.90;;;;;;5107315;28;20267;-80
2021/06/07 03:49:19;;;;;;;13.37;8.30;;;15.10;99.90;;;;;;5090727;28;20215;-80
2021/06/07 03:51:45;;;;;;;14.20;9.43;;;15.10;99.90;;;;;;5107519;28;20279;-80
2021/06/07 03:54:10;;;;;;;14.60;8.40;;;15.10;99.90;;;;;;5091269;28;20176;-80
2021/06/07 03:56:36;;;;;;;14.70;8.73;;;15.10;99.90;;;;;;5089053;28;20693;-80
2021/06/07 03:59:02;;;;;;;18.30;9.30;;;15.10;99.90;;;;;;5124630;28;20184;-80
2021/06/07 04:01:27;;;;;;;15.13;8.40;;;15.10;99.90;;;;;;5091736;28;20196;-79
2021/06/07 04:03:53;;;;;;;14.60;8.93;;;15.00;99.90;;;;;;5103800;28;20271;-81
2021/06/07 04:06:20;;;;;;;14.40;9.53;;;15.10;99.90;;;;;;5082621;28;20215;-83
2021/06/07 04:08:45;;;;;;;15.53;9.13;;;15.00;99.90;;;;;;5081881;28;20212;-80
2021/06/07 04:11:11;;;;;;;14.90;8.47;;;15.00;99.90;;;;;;5082304;28;20199;-79
2021/06/07 04:13:37;;;;;;;13.43;8.60;;;15.00;99.90;;;;;;5081920;28;20225;-79
2021/06/07 04:16:04;;;;;;;13.77;7.97;;;15.00;99.90;;;;;;5083327;28;20520;-79
2021/06/07 04:18:29;;;;;;;14.67;8.67;;;15.00;99.90;;;;;;5107996;28;20172;-79
2021/06/07 04:20:55;;;;;;;14.97;8.80;;;15.00;99.90;;;;;;5102772;28;20211;-78
2021/06/07 04:23:21;;;;;;;14.43;8.57;;;15.00;99.90;;;;;;5103944;28;20183;-79
2021/06/07 04:25:47;;;;;;;12.93;8.00;;;15.00;99.90;;;;;;5099741;28;20215;-79
2021/06/07 04:28:12;;;;;;;13.50;8.57;;;15.00;99.90;;;;;;5081321;28;20207;-79
2021/06/07 04:30:38;;;;;;;15.30;8.97;;;15.00;99.90;;;;;;5114273;28;20195;-80
2021/06/07 04:33:03;;;;;;;13.47;8.50;;;15.00;99.90;;;;;;5114586;28;20193;-80
2021/06/07 04:35:29;;;;;;;13.33;7.77;;;15.00;99.90;;;;;;5098049;28;20177;-80
2021/06/07 04:37:55;;;;;;;12.27;7.53;;;15.00;99.90;;;;;;5080194;28;20255;-81
2021/06/07 04:40:25;;;;;;;11.83;7.90;;;15.00;99.90;;;;;;5097659;28;20183;-84
2021/06/07 04:42:51;;;;;;;14.40;7.63;;;15.00;99.90;;;;;;5098273;28;20206;-79
2021/06/07 04:45:17;;;;;;;13.97;7.57;;;14.90;99.90;;;;;;5095675;28;20177;-82
2021/06/07 04:47:42;;;;;;;13.13;7.37;;;14.90;99.90;;;;;;5080435;28;20844;-81
2021/06/07 04:50:08;;;;;;;12.80;6.97;;;14.90;99.90;;;;;;5081186;28;20179;-81
2021/06/07 04:52:35;;;;;;;11.30;7.10;;;14.90;99.90;;;;;;5097387;28;20727;-82
2021/06/07 04:55:01;;;;;;;10.73;6.70;;;14.90;99.90;;;;;;5080459;28;20172;-80
2021/06/07 04:57:27;;;;;;;11.57;7.47;;;14.90;99.90;;;;;;5097301;28;20176;-81
2021/06/07 04:59:52;;;;;;;10.00;6.93;;;14.90;99.90;;;;;;5080664;28;20671;-81
2021/06/07 05:02:18;;;;;;;10.83;7.23;;;14.90;99.90;;;;;;5080032;28;20567;-81
2021/06/07 05:04:43;;;;;;;13.43;7.33;;;14.90;99.90;;;;;;5093172;28;20605;-81
2021/06/07 05:07:09;;;;;;;13.13;7.90;;;14.90;99.90;;;;;;5076690;28;20184;-81
2021/06/07 05:09:34;;;;;;;11.13;6.93;;;14.90;99.90;;;;;;5076076;28;20204;-81
2021/06/07 05:12:00;;;;;;;10.93;6.83;;;14.90;99.90;;;;;;5060691;28;20284;-81
2021/06/07 05:14:25;;;;;;;12.77;7.30;;;14.90;99.90;;;;;;5077073;28;20259;-82
2021/06/07 05:16:51;;;;;;;11.53;7.50;;;15.00;99.90;;;;;;5077110;28;20290;-81
2021/06/07 05:19:19;;;;;;;11.93;6.93;;;14.90;99.90;;;;;;5090977;28;20647;-80
2021/06/07 05:21:44;;;;;;;11.40;7.43;;;14.90;99.90;;;;;;5092464;28;20209;-79
2021/06/07 05:24:10;;;;;;;14.53;7.00;;;14.90;99.90;;;;;;5095415;28;20656;-78
2021/06/07 05:26:35;;;;;;;12.60;7.60;;;14.90;99.90;;;;;;5087848;28;20218;-79
2021/06/07 05:29:01;;;;;;;11.37;7.47;;;15.00;99.90;;;;;;5075728;28;20200;-79
2021/06/07 05:31:26;;;;;;;12.17;7.40;;;14.90;99.90;;;;;;5092723;28;20201;-80
2021/06/07 05:33:52;;;;;;;11.60;7.23;;;15.00;99.90;;;;;;5093206;28;20256;-80
2021/06/07 05:36:18;;;;;;;11.53;7.53;;;15.00;99.90;;;;;;5076455;28;20165;-79
2021/06/07 05:38:43;;;;;;;10.73;6.73;;;15.00;99.90;;;;;;5110813;28;20236;-79
2021/06/07 05:41:09;;;;;;;11.30;7.17;;;15.00;99.90;;;;;;5096253;28;20204;-79
2021/06/07 05:43:35;;;;;;;11.00;7.10;;;15.00;99.90;;;;;;5088345;28;20692;-79
2021/06/07 05:46:00;;;;;;;8.67;6.23;;;15.00;99.90;;;;;;5096667;28;20580;-78
2021/06/07 05:48:26;;;;;;;12.17;7.10;;;15.00;99.90;;;;;;5092917;28;20284;-79
2021/06/07 05:50:51;;;;;;;11.03;6.97;;;15.10;99.90;;;;;;5097417;28;20245;-80
2021/06/07 05:53:18;;;;;;;10.87;7.37;;;15.10;99.90;;;;;;5097545;28;20268;-79
2021/06/07 05:55:44;;;;;;;9.57;6.67;;;15.10;99.90;;;;;;5097179;28;20184;-79
2021/06/07 05:58:15;;;;;;;9.53;6.50;;;15.10;99.90;;;;;;5097114;28;20599;-79
2021/06/07 06:00:42;;;;;;;10.13;6.43;;;15.10;99.90;;;;;;5096571;28;20184;-79
2021/06/07 06:03:07;;;;;;;10.43;6.43;;;15.10;99.90;;;;;;5097369;28;20234;-79
2021/06/07 06:05:33;;;;;;;10.37;6.60;;;15.20;99.90;;;;;;5097088;28;20632;-79
2021/06/07 06:07:59;;;;;;;11.33;7.10;;;15.20;99.90;;;;;;5096478;28;20188;-78
2021/06/07 06:10:24;;;;;;;10.57;6.67;;;15.30;99.90;;;;;;5096896;28;20169;-79
2021/06/07 06:12:50;;;;;;;13.00;6.97;;;15.30;99.90;;;;;;5096779;28;20208;-80
2021/06/07 06:15:18;;;;;;;11.03;7.10;;;15.30;99.90;;;;;;5096520;28;20172;-78
2021/06/07 06:17:43;;;;;;;10.37;6.57;;;15.40;99.90;;;;;;5096267;28;20666;-78
2021/06/07 06:20:10;;;;;;;9.40;6.70;;;15.40;99.90;;;;;;5098770;28;20262;-78
2021/06/07 06:22:35;;;;;;;10.00;7.00;;;15.50;99.90;;;;;;5116838;28;20227;-80
2021/06/07 06:25:01;;;;;;;10.13;6.90;;;15.50;99.90;;;;;;5117887;28;20245;-80
2021/06/07 06:27:27;;;;;;;9.57;6.97;;;15.40;99.90;;;;;;5100467;28;20187;-81
2021/06/07 06:29:53;;;;;;;9.47;6.83;;;15.40;99.90;;;;;;5115917;28;20191;-81
2021/06/07 06:32:19;;;;;;;9.33;6.40;;;15.50;99.90;;;;;;5116876;28;20188;-81
2021/06/07 06:34:46;;;;;;;11.63;7.17;;;15.50;99.90;;;;;;5106639;28;20180;-80
2021/06/07 06:37:11;;;;;;;11.63;7.77;;;15.50;99.90;;;;;;5107880;28;20259;-80
2021/06/07 06:39:37;;;;;;;12.13;7.60;;;15.60;99.90;;;;;;5120190;28;20215;-78
2021/06/07 06:42:03;;;;;;;13.17;7.83;;;15.60;99.90;;;;;;5116779;28;20196;-78
2021/06/07 06:44:29;;;;;;;10.60;7.10;;;15.70;99.90;;;;;;5117528;28;20187;-78
2021/06/07 06:46:54;;;;;;;12.60;7.50;;;15.80;99.90;;;;;;5101221;28;20180;-78
2021/06/07 06:49:20;;;;;;;12.03;7.40;;;15.90;99.90;;;;;;5117904;28;20285;-78
2021/06/07 06:51:45;;;;;;;13.30;7.43;;;15.90;99.90;;;;;;5100345;28;20199;-78
2021/06/07 06:54:11;;;;;;;11.50;7.30;;;16.00;99.90;;;;;;5118396;28;20168;-78
2021/06/07 06:56:37;;;;;;;11.33;7.17;;;16.10;99.90;;;;;;5116557;28;20184;-79
2021/06/07 06:59:03;;;;;;;12.17;7.10;;;16.30;99.90;;;;;;5116709;28;20184;-79
2021/06/07 07:01:28;;;;;;;10.83;6.93;;;16.40;99.90;;;;;;5101253;28;20238;-78
2021/06/07 07:03:54;;;;;;;11.83;7.43;;;16.40;99.90;;;;;;5120473;28;20172;-79
2021/06/07 07:06:19;;;;;;;9.70;6.47;;;16.40;99.90;;;;;;5119978;28;20203;-79
2021/06/07 07:08:45;;;;;;;10.70;6.80;;;16.30;99.90;;;;;;5102830;28;20260;-79
2021/06/07 07:11:11;;;;;;;10.10;6.93;;;16.40;99.90;;;;;;5100776;28;20221;-78
2021/06/07 07:13:38;;;;;;;10.00;6.67;;;16.40;99.90;;;;;;5117197;28;20239;-79
2021/06/07 07:16:04;;;;;;;10.13;6.70;;;16.40;99.90;;;;;;5098152;28;20176;-78
2021/06/07 07:18:30;;;;;;;10.37;6.00;;;16.30;99.90;;;;;;5117397;28;20168;-78
2021/06/07 07:20:56;;;;;;;13.03;6.60;;;16.30;99.90;;;;;;5099785;28;20200;-79
2021/06/07 07:23:21;;;;;;;9.50;6.13;;;16.40;99.90;;;;;;5095976;28;20664;-78
2021/06/07 07:25:48;;;;;;;10.57;6.37;;;16.50;99.90;;;;;;5095166;28;20223;-78
2021/06/07 07:28:13;;;;;;;9.40;6.47;;;16.50;99.90;;;;;;5094872;28;20193;-77
2021/06/07 07:30:39;;;;;;;9.63;6.17;;;16.60;99.90;;;;;;5077582;28;20222;-78
2021/06/07 07:33:05;;;;;;;9.07;5.83;;;16.70;99.90;;;;;;5078715;28;20176;-77
2021/06/07 07:35:31;;;;;;;8.00;5.80;;;16.80;99.90;;;;;;5078464;28;20184;-78
2021/06/07 07:37:56;;;;;;;9.10;6.10;;;16.90;99.90;;;;;;5095422;28;20177;-77
2021/06/07 07:40:23;;;;;;;8.37;5.67;;;16.90;99.90;;;;;;5077926;28;20188;-78
2021/06/07 07:42:48;;;;;;;8.10;5.93;;;17.00;99.90;;;;;;5078964;28;20205;-78
2021/06/07 07:45:16;;;;;;;8.27;5.50;;;17.10;99.90;;;;;;5061708;28;20542;-78
2021/06/07 07:47:41;;;;;;;8.10;5.47;;;17.10;99.90;;;;;;5078398;28;20201;-78
2021/06/07 07:50:10;;;;;;;9.63;6.03;;;17.10;99.90;;;;;;5094797;28;20176;-77
2021/06/07 07:52:35;;;;;;;6.27;5.00;;;17.00;99.90;;;;;;5078931;28;20195;-78
2021/06/07 07:55:01;;;;;;;7.97;5.60;;;17.00;99.90;;;;;;5079279;28;20165;-78
2021/06/07 07:57:27;;;;;;;7.87;5.50;;;16.90;99.90;;;;;;5095017;28;20273;-78
2021/06/07 07:59:52;;;;;;;7.13;5.40;;;16.90;99.90;;;;;;5078286;28;20251;-78
2021/06/07 08:02:18;;;;;;;7.23;5.40;;;16.90;99.90;;;;;;5061488;28;20193;-78
2021/06/07 08:04:44;;;;;;;7.67;5.40;;;16.80;99.90;;;;;;5078415;28;20659;-78
2021/06/07 08:07:10;;;;;;;8.47;5.33;;;16.80;99.90;;;;;;5062460;28;20177;-78
2021/06/07 08:09:36;;;;;;;8.87;4.80;;;16.80;99.90;;;;;;5094695;28;20239;-78
2021/06/07 08:12:02;;;;;;;7.33;5.37;;;16.80;99.90;;;;;;5077912;28;20266;-78
2021/06/07 08:14:28;;;;;;;7.53;4.93;;;16.80;99.90;;;;;;5061873;28;20238;-77
2021/06/07 08:16:54;;;;;;;6.90;4.97;;;16.80;99.90;;;;;;5061311;28;20181;-78
2021/06/07 08:19:20;;;;;;;6.63;4.67;;;16.80;99.90;;;;;;5078380;28;20204;-78
2021/06/07 08:21:46;;;;;;;6.93;4.53;;;16.90;99.90;;;;;;5078237;28;20199;-78
2021/06/07 08:24:12;;;;;;;6.87;4.90;;;17.00;99.90;;;;;;5094873;28;20256;-78
2021/06/07 08:26:37;;;;;;;6.87;4.87;;;17.00;99.90;;;;;;5060595;28;20223;-78
2021/06/07 08:29:03;;;;;;;7.20;4.67;;;17.00;99.90;;;;;;5078000;28;20224;-78
2021/06/07 08:31:28;;;;;;;5.73;4.40;;;17.00;99.90;;;;;;5094740;28;20196;-78
2021/06/07 08:33:54;;;;;;;8.57;4.80;;;16.90;99.90;;;;;;5078118;28;20184;-78
2021/06/07 08:36:20;;;;;;;8.27;4.93;;;16.90;99.90;;;;;;5077822;28;20200;-78
2021/06/07 08:38:46;;;;;;;7.20;4.83;;;17.10;99.90;;;;;;5061390;28;20187;-78
2021/06/07 08:41:11;;;;;;;5.80;4.63;;;17.20;99.90;;;;;;5077715;28;20197;-78
2021/06/07 08:43:37;;;;;;;8.03;4.47;;;17.20;99.90;;;;;;5061603;28;20177;-78
2021/06/07 08:46:02;;;;;;;7.63;5.10;;;17.30;99.90;;;;;;5060804;28;20191;-77
2021/06/07 08:48:28;;;;;;;7.20;4.60;;;17.30;99.90;;;;;;5077622;28;20200;-78
2021/06/07 08:50:56;;;;;;;8.07;4.83;;;17.30;99.90;;;;;;5077795;28;20242;-78
2021/06/07 08:53:22;;;;;;;5.73;4.23;;;17.30;99.90;;;;;;5095500;28;20524;-77
2021/06/07 08:55:47;;;;;;;6.97;4.60;;;17.30;99.90;;;;;;5077449;28;20298;-78
2021/06/07 08:58:13;;;;;;;6.50;4.87;;;17.30;99.90;;;;;;5077968;28;20652;-77
2021/06/07 09:00:39;;;;;;;6.13;4.43;;;17.30;99.90;;;;;;5061349;28;20214;-78
2021/06/07 09:03:07;;;;;;;7.43;4.80;;;17.40;99.90;;;;;;5078450;28;20173;-78
2021/06/07 09:05:33;;;;;;;6.87;4.43;;;17.30;99.90;;;;;;5062619;28;20184;-78
2021/06/07 09:08:01;;;;;;;8.47;4.27;;;17.30;99.90;;;;;;5062043;28;20201;-78
2021/06/07 09:10:28;;;;;;;5.67;4.13;;;17.40;99.90;;;;;;5095060;28;20183;-78
2021/06/07 09:12:55;;;;;;;6.77;4.13;;;17.50;99.90;;;;;;5077751;28;20248;-78
2021/06/07 09:15:41;;;;;;;7.27;4.23;;;17.60;99.90;;;;;;5060466;28;20177;-77
2021/06/07 09:18:08;;;;;;;6.37;4.47;;;17.60;99.90;;;;;;5080066;28;20259;-78
2021/06/07 09:20:35;;;;;;;5.80;3.83;;;17.60;99.90;;;;;;5077635;28;20184;-78
2021/06/07 09:23:06;;;;;;;5.73;4.00;;;17.50;99.90;;;;;;5061429;28;20211;-78
2021/06/07 09:25:36;;;;;;;6.43;4.40;;;17.50;99.90;;;;;;5082327;28;20192;-78
2021/06/07 09:28:05;;;;;;;5.47;4.10;;;17.50;99.90;;;;;;5107027;28;20268;-78
2021/06/07 09:30:33;;;;;;;5.77;3.90;;;17.50;99.90;;;;;;5111059;28;20173;-78
2021/06/07 09:33:30;;;;;;;7.83;4.40;;;17.60;99.90;;;;;;5107099;28;20165;-78
2021/06/07 09:36:07;;;;;;;5.83;4.00;;;17.80;99.90;;;;;;5123852;28;20180;-78
2021/06/07 09:38:34;;;;;;;6.40;4.10;;;17.80;99.90;;;;;;5112787;28;20237;-77
2021/06/07 09:41:00;;;;;;;5.20;3.97;;;17.80;99.90;;;;;;5100982;28;20202;-78
2021/06/07 09:43:26;;;;;;;6.27;4.13;;;17.80;99.90;;;;;;5096131;28;20252;-77
2021/06/07 09:45:55;;;;;;;4.80;3.80;;;17.80;99.90;;;;;;5086161;28;20219;-77
2021/06/07 09:48:26;;;;;;;5.50;3.90;;;17.90;99.90;;;;;;5106648;28;20203;-77
2021/06/07 09:50:59;;;;;;;7.03;4.57;;;17.90;99.90;;;;;;5098292;28;20193;-78
2021/06/07 09:53:46;;;;;;;4.90;3.53;;;18.10;99.90;;;;;;5103943;28;20169;-79
2021/06/07 09:56:12;;;;;;;5.43;4.03;;;18.10;99.90;;;;;;5103545;28;20177;-79
2021/06/07 09:58:39;;;;;;;6.50;3.53;;;18.20;99.90;;;;;;5085886;28;20199;-78
2021/06/07 10:01:13;;;;;;;7.43;4.00;;;18.20;99.90;;;;;;5084947;28;20203;-79
2021/06/07 10:03:42;;;;;;;4.73;3.73;;;18.30;99.90;;;;;;5082853;28;20177;-77
2021/06/07 10:06:30;;;;;;;7.93;4.20;;;18.60;99.90;;;;;;5098890;28;20567;-78
2021/06/07 10:09:00;;;;;;;6.37;3.63;;;18.60;99.90;;;;;;5116388;28;20195;-79
2021/06/07 10:11:32;;;;;;;5.77;3.93;;;18.70;99.90;;;;;;5102783;28;20196;-79
2021/06/07 10:14:24;;;;;;;5.40;4.00;;;18.70;99.90;;;;;;5094642;28;20165;-78
2021/06/07 10:16:58;;;;;;;4.97;3.93;;;18.70;99.90;;;;;;5091398;28;20184;-78
2021/06/07 10:20:46;;;;;;;5.00;3.70;;;18.80;99.90;;;;;;5094241;28;20237;-80
2021/06/07 10:22:19;;;;;;;5.50;3.93;;;19.10;99.90;;;;;;5107172;28;20204;-78
2021/06/07 10:24:45;;;;;;;5.83;3.73;;;19.20;99.90;;;;;;5097122;28;20659;-78
2021/06/07 10:27:10;;;;;;;6.50;3.90;;;19.30;99.90;;;;;;5094507;28;20185;-78
2021/06/07 10:29:43;;;;;;;5.07;3.87;;;19.20;99.90;;;;;;5061008;28;20233;-78
2021/06/07 10:32:10;;;;;;;5.23;3.60;;;19.30;99.90;;;;;;5090042;28;20687;-79
2021/06/07 10:34:51;;;;;;;4.57;3.57;;;19.40;99.90;;;;;;5114668;28;20168;-78
2021/06/07 10:37:17;;;;;;;4.63;3.73;;;19.60;99.90;;;;;;5095082;28;20169;-79
2021/06/07 10:39:43;;;;;;;5.03;3.80;;;19.70;99.90;;;;;;5111091;28;20622;-78
2021/06/07 10:42:08;;;;;;;4.67;3.20;;;19.70;99.90;;;;;;5097159;28;20282;-77
2021/06/07 10:44:37;;;;;;;4.50;3.73;;;19.60;99.90;;;;;;5116335;28;20232;-78
2021/06/07 10:47:08;;;;;;;4.37;3.40;;;19.50;99.90;;;;;;5115006;28;20176;-77
2021/06/07 10:49:47;;;;;;;5.07;3.73;;;19.60;99.90;;;;;;5095827;28;20663;-78
2021/06/07 10:52:25;;;;;;;6.07;3.43;;;19.60;99.90;;;;;;5105736;28;20199;-77
2021/06/07 10:54:58;;;;;;;5.10;3.47;;;19.60;99.90;;;;;;5067966;28;20181;-77
2021/06/07 10:57:41;;;;;;;3.93;3.27;;;19.60;99.90;;;;;;5096446;28;20211;-78
2021/06/07 11:00:15;;;;;;;9.00;6.33;;;19.50;99.90;;;;;;5079731;28;20180;-77
2021/06/07 11:02:43;;;;;;;4.87;3.53;;;19.60;99.90;;;;;;5111688;28;20200;-78
2021/06/07 11:05:17;;;;;;;6.23;3.93;;;19.60;99.90;;;;;;5114075;28;20544;-78
2021/06/07 11:08:01;;;;;;;6.83;4.10;;;19.70;99.90;;;;;;5076541;28;20176;-77
2021/06/07 11:10:35;;;;;;;5.27;3.80;;;19.70;99.90;;;;;;5087163;28;20172;-77
2021/06/07 11:13:14;;;;;;;5.80;3.67;;;19.70;99.90;;;;;;5113518;28;20616;-78
2021/06/07 11:15:42;;;;;;;4.70;3.77;;;19.80;99.90;;;;;;5113471;28;20780;-75
2021/06/07 11:18:29;;;;;;;6.77;3.93;;;19.90;99.90;;;;;;5096531;28;20219;-78
2021/06/07 11:20:59;;;;;;;6.20;4.03;;;19.90;99.90;;;;;;5112939;28;20313;-76
2021/06/07 11:23:38;;;;;;;4.70;3.20;;;19.80;99.90;;;;;;5113019;28;20186;-77
2021/06/07 11:26:08;;;;;;;6.60;3.67;;;19.90;99.90;;;;;;5096407;28;20168;-74
2021/06/07 11:28:50;;;;;;;6.70;4.03;;;20.00;99.90;;;;;;5079589;28;20204;-76
2021/06/07 11:31:18;;;;;;;5.40;3.70;;;20.00;99.90;;;;;;5095973;28;20188;-76
2021/06/07 11:33:57;;;;;;;5.47;3.27;;;20.00;99.90;;;;;;5114249;28;20328;-79
2021/06/07 11:36:55;;;;;;;5.87;3.47;;;20.20;99.90;;;;;;5114298;28;20623;-75
2021/06/07 11:39:22;;;;;;;6.17;3.60;;;20.20;99.90;;;;;;5112742;28;20647;-77
2021/06/07 11:42:00;;;;;;;6.37;3.80;;;20.10;99.90;;;;;;5100837;28;20208;-77
2021/06/07 11:47:25;;;;;;;4.13;3.23;;;20.20;99.90;;;;;;5093434;28;20667;-77
2021/06/07 11:49:57;;;;;;;4.60;3.33;;;20.20;99.90;;;;;;5075275;28;20756;-77
2021/06/07 11:52:32;;;;;;;5.13;3.30;;;20.30;99.90;;;;;;5092476;28;20240;-76
2021/06/07 11:55:01;;;;;;;3.90;3.30;;;20.40;99.90;;;;;;5093777;28;20176;-78
2021/06/07 11:57:27;;;;;;;6.50;2.80;;;20.40;99.90;;;;;;5075539;28;20652;-78
2021/06/07 11:59:59;;;;;;;5.97;3.33;;;20.50;99.90;;;;;;5074944;28;20220;-78
2021/06/07 12:02:27;;;;;;;4.70;3.70;;;20.60;99.90;;;;;;5092343;28;20208;-77
2021/06/07 12:04:52;;;;;;;5.17;3.50;;;20.60;99.90;;;;;;5082868;28;20179;-76
2021/06/07 12:07:18;;;;;;;5.13;3.60;;;20.50;99.90;;;;;;5112175;28;20188;-77
2021/06/07 12:09:49;;;;;;;5.37;3.73;;;20.50;99.90;;;;;;5095215;28;20200;-76
2021/06/07 12:12:15;;;;;;;5.50;3.80;;;20.40;99.90;;;;;;5095486;28;20192;-76
2021/06/07 12:14:42;;;;;;;4.87;3.37;;;20.60;99.90;;;;;;5095448;28;20543;-77
2021/06/07 12:17:18;;;;;;;8.53;3.47;;;20.60;99.90;;;;;;5112167;28;20264;-75
2021/06/07 12:19:56;;;;;;;5.97;3.33;;;20.60;99.90;;;;;;5112864;28;20538;-77
2021/06/07 12:22:33;;;;;;;4.77;3.07;;;20.70;99.90;;;;;;5097969;28;20196;-76
2021/06/07 12:25:17;;;;;;;5.23;3.20;;;20.70;99.90;;;;;;5112565;28;20268;-76
2021/06/07 12:30:28;;;;;;;4.07;3.20;;;20.50;99.90;;;;;;5092791;28;20171;-75
2021/06/07 12:32:54;;;;;;;5.37;3.60;;;20.40;99.90;;;;;;5081204;28;20209;-76
2021/06/07 12:35:21;;;;;;;6.50;3.40;;;20.50;99.90;;;;;;5103953;28;20176;-76
2021/06/07 12:38:06;;;;;;;5.77;3.27;;;20.70;99.90;;;;;;5112126;28;20727;-75
2021/06/07 12:40:40;;;;;;;5.77;3.30;;;20.90;99.90;;;;;;5091129;28;20181;-76
2021/06/07 12:43:05;;;;;;;3.20;2.90;;;21.00;99.90;;;;;;5091496;28;20157;-76
2021/06/07 12:45:33;;;;;;;3.73;3.13;;;21.00;99.90;;;;;;5092681;28;20185;-76
2021/06/07 12:48:12;;;;;;;4.27;3.30;;;20.80;99.90;;;;;;5074846;28;20203;-76
2021/06/07 12:50:39;;;;;;;5.40;3.07;;;20.80;99.90;;;;;;5057809;28;20187;-76